createdAt,value
2022-11-13T00:00:54.820Z,42.47
2022-11-13T00:03:24.073Z,36.00
2022-11-13T00:06:00.691Z,36.40
2022-11-13T00:08:28.793Z,32.30
2022-11-13T00:11:01.519Z,33.15
2022-11-13T00:13:30.644Z,38.47
2022-11-13T00:15:59.836Z,51.10
2022-11-13T00:18:30.628Z,34.80
2022-11-13T00:20:58.921Z,40.30
2022-11-13T00:23:26.683Z,45.45
2022-11-13T00:25:54.522Z,44.03
2022-11-13T00:28:22.322Z,40.83
2022-11-13T00:30:50.092Z,35.80
2022-11-13T00:33:37.937Z,36.90
2022-11-13T00:36:09.241Z,56.22
2022-11-13T00:38:37.052Z,55.22
2022-11-13T00:41:04.825Z,69.78
2022-11-13T00:43:32.657Z,62.60
2022-11-13T00:46:00.428Z,53.08
2022-11-13T00:48:28.551Z,108.47
2022-11-13T00:50:56.937Z,68.05
2022-11-13T00:53:26.275Z,46.05
2022-11-13T00:55:54.046Z,58.43
2022-11-13T00:58:22.011Z,40.95
2022-11-13T01:00:50.474Z,42.85
2022-11-13T01:03:18.996Z,43.75
2022-11-13T01:05:48.010Z,42.42
2022-11-13T01:08:17.155Z,36.20
2022-11-13T01:10:53.488Z,32.13
2022-11-13T01:13:21.825Z,35.05
2022-11-13T01:15:49.685Z,32.08
2022-11-13T01:18:17.517Z,28.42
2022-11-13T01:20:46.005Z,35.08
2022-11-13T01:23:13.753Z,37.20
2022-11-13T01:25:41.613Z,27.02
2022-11-13T01:28:10.785Z,25.70
2022-11-13T01:30:40.131Z,28.70
2022-11-13T01:33:07.898Z,35.67
2022-11-13T01:35:35.738Z,28.42
2022-11-13T01:38:03.516Z,26.30
2022-11-13T01:40:31.281Z,26.45
2022-11-13T01:42:59.100Z,23.90
2022-11-13T01:46:06.356Z,24.55
2022-11-13T01:48:39.704Z,28.17
2022-11-13T01:51:12.209Z,20.38
2022-11-13T01:53:41.976Z,20.87
2022-11-13T01:56:10.141Z,21.13
2022-11-13T01:58:40.414Z,33.83
2022-11-13T02:01:09.950Z,21.25
2022-11-13T02:03:37.934Z,33.97
2022-11-13T02:06:05.930Z,48.42
2022-11-13T02:08:34.556Z,23.33
2022-11-13T02:11:02.557Z,29.50
2022-11-13T02:13:30.377Z,33.17
2022-11-13T02:15:59.052Z,21.35
2022-11-13T02:18:31.694Z,29.90
2022-11-13T02:21:07.036Z,21.70
2022-11-13T02:23:44.778Z,20.13
2022-11-13T02:26:14.637Z,31.02
2022-11-13T02:28:42.436Z,29.80
2022-11-13T02:31:11.581Z,22.20
2022-11-13T02:33:39.410Z,23.85
2022-11-13T02:36:10.331Z,24.47
2022-11-13T02:38:40.148Z,37.35
2022-11-13T02:41:07.949Z,20.77
2022-11-13T02:43:37.095Z,20.65
2022-11-13T02:46:04.946Z,21.55
2022-11-13T02:48:32.701Z,20.98
2022-11-13T02:51:00.462Z,20.83
2022-11-13T02:53:28.401Z,19.90
2022-11-13T02:55:56.157Z,27.35
2022-11-13T02:58:23.977Z,21.55
2022-11-13T03:00:53.094Z,19.70
2022-11-13T03:03:41.055Z,17.45
2022-11-13T03:06:08.668Z,18.17
2022-11-13T03:08:37.057Z,17.98
2022-11-13T03:11:09.811Z,17.52
2022-11-13T03:13:38.153Z,18.27
2022-11-13T03:16:15.161Z,18.77
2022-11-13T03:18:43.116Z,16.33
2022-11-13T03:21:12.796Z,17.13
2022-11-13T03:23:44.855Z,15.93
2022-11-13T03:26:16.637Z,14.63
2022-11-13T03:28:44.594Z,15.27
2022-11-13T03:31:13.755Z,16.50
2022-11-13T03:33:41.521Z,16.50
2022-11-13T03:36:09.686Z,17.13
2022-11-13T03:38:37.480Z,15.80
2022-11-13T03:41:05.724Z,15.18
2022-11-13T03:43:33.513Z,14.80
2022-11-13T03:46:01.295Z,13.38
2022-11-13T03:48:30.795Z,13.93
2022-11-13T03:50:58.757Z,13.38
2022-11-13T03:53:26.749Z,13.13
2022-11-13T03:55:55.060Z,13.73
2022-11-13T03:58:22.872Z,13.77
2022-11-13T04:00:51.121Z,13.20
2022-11-13T04:03:18.866Z,13.70
2022-11-13T04:05:49.201Z,12.70
2022-11-13T04:08:17.231Z,13.38
2022-11-13T04:10:45.093Z,12.20
2022-11-13T04:13:13.984Z,12.52
2022-11-13T04:15:41.791Z,11.55
2022-11-13T04:18:09.549Z,12.07
2022-11-13T04:20:37.451Z,12.10
2022-11-13T04:23:11.347Z,11.57
2022-11-13T04:25:39.158Z,11.73
2022-11-13T04:28:06.909Z,11.87
2022-11-13T04:30:34.666Z,11.50
2022-11-13T04:33:02.457Z,10.90
2022-11-13T04:35:30.249Z,10.83
2022-11-13T04:37:58.022Z,11.45
2022-11-13T04:40:27.177Z,12.23
2022-11-13T04:42:54.107Z,12.02
2022-11-13T04:45:23.951Z,11.80
2022-11-13T04:47:52.510Z,11.30
2022-11-13T04:50:20.444Z,11.38
2022-11-13T04:52:48.466Z,11.70
2022-11-13T04:55:16.397Z,11.48
2022-11-13T04:57:45.534Z,11.38
2022-11-13T05:00:14.401Z,11.55
2022-11-13T05:02:42.237Z,11.00
2022-11-13T05:05:10.261Z,12.05
2022-11-13T05:07:38.419Z,11.07
2022-11-13T05:10:07.043Z,11.05
2022-11-13T05:12:34.834Z,10.88
2022-11-13T05:15:04.592Z,11.55
2022-11-13T05:17:32.810Z,10.55
2022-11-13T05:20:00.577Z,10.93
2022-11-13T05:22:28.591Z,10.35
2022-11-13T05:24:56.376Z,10.30
2022-11-13T05:27:24.157Z,10.25
2022-11-13T05:29:51.935Z,10.55
2022-11-13T05:32:21.088Z,9.98
2022-11-13T05:34:48.814Z,9.75
2022-11-13T05:37:16.765Z,10.25
2022-11-13T05:39:44.560Z,10.27
2022-11-13T05:42:12.298Z,10.45
2022-11-13T05:44:40.161Z,10.13
2022-11-13T05:47:07.954Z,10.00
2022-11-13T05:49:37.075Z,10.00
2022-11-13T05:52:04.860Z,10.45
2022-11-13T05:54:32.657Z,10.40
2022-11-13T05:57:00.436Z,10.52
2022-11-13T05:59:28.192Z,10.98
2022-11-13T06:01:56.046Z,10.20
2022-11-13T06:04:23.817Z,10.30
2022-11-13T06:06:53.326Z,10.55
2022-11-13T06:09:21.384Z,10.95
2022-11-13T06:11:49.173Z,10.50
2022-11-13T06:14:17.016Z,11.05
2022-11-13T06:16:44.813Z,10.93
2022-11-13T06:19:12.940Z,9.18
2022-11-13T06:21:41.704Z,8.13
2022-11-13T06:24:14.040Z,8.68
2022-11-13T06:26:41.907Z,8.98
2022-11-13T06:29:12.675Z,8.95
2022-11-13T06:31:40.842Z,10.97
2022-11-13T06:34:08.805Z,9.98
2022-11-13T06:36:38.405Z,9.95
2022-11-13T06:39:11.408Z,9.70
2022-11-13T06:41:40.465Z,9.90
2022-11-13T06:44:08.390Z,9.98
2022-11-13T06:46:36.305Z,10.07
2022-11-13T06:49:04.322Z,10.23
2022-11-13T06:51:32.873Z,10.13
2022-11-13T06:54:00.735Z,11.25
2022-11-13T06:56:30.126Z,11.32
2022-11-13T06:58:58.355Z,11.48
2022-11-13T07:01:27.702Z,11.85
2022-11-13T07:03:55.770Z,11.77
2022-11-13T07:06:25.290Z,28.15
2022-11-13T07:08:53.476Z,13.30
2022-11-13T07:11:23.474Z,12.55
2022-11-13T07:13:52.863Z,13.27
2022-11-13T07:16:21.030Z,12.70
2022-11-13T07:18:52.542Z,12.30
2022-11-13T07:21:20.646Z,12.80
2022-11-13T07:23:49.628Z,13.20
2022-11-13T07:26:17.432Z,13.90
2022-11-13T07:28:45.829Z,13.38
2022-11-13T07:31:17.077Z,13.65
2022-11-13T07:33:45.197Z,13.70
2022-11-13T07:36:12.988Z,14.43
2022-11-13T07:38:40.758Z,14.43
2022-11-13T07:41:08.896Z,15.13
2022-11-13T07:43:36.739Z,15.88
2022-11-13T07:46:04.515Z,18.10
2022-11-13T07:48:33.665Z,16.33
2022-11-13T07:51:02.457Z,15.40
2022-11-13T07:53:30.591Z,16.65
2022-11-13T07:56:01.910Z,17.30
2022-11-13T07:58:30.341Z,16.75
2022-11-13T08:01:04.075Z,16.27
2022-11-13T08:03:33.467Z,16.43
2022-11-13T08:06:03.322Z,15.90
2022-11-13T08:08:31.446Z,16.02
2022-11-13T08:10:59.590Z,16.17
2022-11-13T08:13:27.632Z,15.75
2022-11-13T08:15:55.512Z,17.30
2022-11-13T08:18:23.278Z,16.73
2022-11-13T08:20:52.717Z,16.73
2022-11-13T08:23:20.560Z,17.67
2022-11-13T08:25:48.312Z,17.80
2022-11-13T08:28:16.454Z,17.40
2022-11-13T08:30:45.106Z,17.98
2022-11-13T08:33:12.914Z,18.03
2022-11-13T08:35:40.957Z,18.83
2022-11-13T08:38:10.537Z,18.77
2022-11-13T08:40:38.393Z,19.40
2022-11-13T08:43:06.414Z,20.38
2022-11-13T08:45:34.173Z,21.15
2022-11-13T08:48:02.756Z,21.57
2022-11-13T08:50:31.663Z,24.23
2022-11-13T08:53:01.466Z,23.83
2022-11-13T08:55:30.620Z,24.05
2022-11-13T08:58:00.072Z,23.05
2022-11-13T09:00:28.310Z,23.63
2022-11-13T09:02:56.514Z,23.63
2022-11-13T09:05:24.591Z,24.00
2022-11-13T09:07:52.895Z,25.33
2022-11-13T09:10:20.794Z,25.77
2022-11-13T09:12:49.961Z,27.90
2022-11-13T09:15:23.210Z,27.67
2022-11-13T09:17:52.149Z,26.38
2022-11-13T09:20:22.704Z,28.65
2022-11-13T09:22:57.840Z,28.42
2022-11-13T09:25:25.778Z,27.70
2022-11-13T09:27:56.468Z,27.17
2022-11-13T09:30:24.871Z,27.52
2022-11-13T09:32:54.941Z,27.48
2022-11-13T09:35:33.939Z,28.20
2022-11-13T09:38:06.542Z,26.45
2022-11-13T09:40:42.453Z,26.52
2022-11-13T09:43:29.347Z,27.83
2022-11-13T09:46:01.758Z,26.40
2022-11-13T09:48:34.758Z,26.30
2022-11-13T09:51:07.246Z,24.60
2022-11-13T09:53:37.910Z,26.15
2022-11-13T09:56:20.045Z,24.80
2022-11-13T09:58:54.445Z,25.02
2022-11-13T10:01:27.511Z,24.97
2022-11-13T10:04:04.135Z,25.50
2022-11-13T10:06:42.329Z,25.17
2022-11-13T10:09:20.374Z,26.60
2022-11-13T10:11:54.398Z,28.50
2022-11-13T10:14:27.930Z,27.17
2022-11-13T10:16:59.012Z,26.80
2022-11-13T10:19:32.523Z,27.17
2022-11-13T10:22:31.789Z,26.43
2022-11-13T10:24:59.406Z,26.77
2022-11-13T10:27:27.601Z,25.67
2022-11-13T10:29:57.942Z,24.85
2022-11-13T10:32:27.871Z,25.50
2022-11-13T10:35:00.676Z,24.35
2022-11-13T10:37:41.783Z,25.17
2022-11-13T10:40:09.935Z,24.73
2022-11-13T10:42:40.493Z,25.27
2022-11-13T10:45:18.613Z,23.73
2022-11-13T10:48:03.589Z,20.98
2022-11-13T10:50:33.961Z,19.10
2022-11-13T10:53:01.754Z,19.37
2022-11-13T10:55:39.461Z,20.73
2022-11-13T10:58:14.601Z,20.08
2022-11-13T11:00:47.409Z,18.77
2022-11-13T11:03:17.360Z,18.48
2022-11-13T11:05:58.815Z,20.02
2022-11-13T11:08:32.088Z,19.00
2022-11-13T11:11:19.519Z,20.15
2022-11-13T11:13:48.954Z,19.38
2022-11-13T11:16:22.455Z,19.17
2022-11-13T11:18:56.789Z,19.27
2022-11-13T11:21:28.335Z,18.20
2022-11-13T11:24:01.859Z,18.08
2022-11-13T11:26:33.572Z,18.13
2022-11-13T11:29:08.131Z,18.27
2022-11-13T11:31:47.233Z,19.00
2022-11-13T11:34:21.393Z,18.00
2022-11-13T11:36:59.037Z,18.17
2022-11-13T11:39:30.586Z,19.15
2022-11-13T11:42:07.097Z,19.27
2022-11-13T11:44:43.014Z,19.17
2022-11-13T11:47:16.846Z,18.38
2022-11-13T11:49:45.325Z,18.33
2022-11-13T11:52:33.042Z,17.95
2022-11-13T11:55:13.310Z,18.27
2022-11-13T11:57:58.307Z,18.38
2022-11-13T12:00:28.433Z,17.92
2022-11-13T12:03:44.353Z,17.73
2022-11-13T12:06:24.552Z,18.92
2022-11-13T12:09:01.148Z,18.55
2022-11-13T12:11:32.745Z,19.52
2022-11-13T12:14:13.166Z,18.63
2022-11-13T12:16:50.946Z,18.73
2022-11-13T12:19:32.014Z,17.73
2022-11-13T12:22:09.586Z,18.52
2022-11-13T12:25:00.687Z,18.70
2022-11-13T12:27:35.191Z,17.33
2022-11-13T12:30:11.936Z,18.35
2022-11-13T12:33:04.353Z,17.63
2022-11-13T12:35:32.743Z,21.45
2022-11-13T12:38:12.291Z,18.90
2022-11-13T12:40:52.176Z,17.40
2022-11-13T12:43:41.722Z,17.70
2022-11-13T12:46:10.914Z,17.00
2022-11-13T12:48:41.902Z,17.80
2022-11-13T12:51:11.481Z,16.20
2022-11-13T12:53:49.104Z,15.75
2022-11-13T12:56:30.766Z,15.88
2022-11-13T12:59:29.261Z,15.50
2022-11-13T13:01:52.914Z,15.57
2022-11-13T13:04:43.668Z,16.17
2022-11-13T13:07:24.263Z,16.77
2022-11-13T13:10:07.017Z,16.73
2022-11-13T13:12:45.478Z,16.67
2022-11-13T13:15:34.106Z,17.10
2022-11-13T13:18:06.953Z,16.70
2022-11-13T13:20:37.665Z,17.30
2022-11-13T13:23:08.601Z,16.42
2022-11-13T13:25:38.831Z,15.80
2022-11-13T13:28:21.161Z,15.80
2022-11-13T13:30:58.010Z,16.00
2022-11-13T13:33:32.701Z,16.55
2022-11-13T13:36:13.865Z,15.43
2022-11-13T13:38:51.936Z,16.00
2022-11-13T13:41:34.450Z,17.40
2022-11-13T13:44:25.106Z,17.55
2022-11-13T13:46:53.088Z,15.43
2022-11-13T13:49:24.145Z,14.93
2022-11-13T13:51:55.046Z,15.60
2022-11-13T13:54:29.076Z,14.63
2022-11-13T13:56:59.510Z,14.95
2022-11-13T13:59:33.012Z,16.17
2022-11-13T14:02:02.593Z,15.82
2022-11-13T14:04:34.267Z,15.02
2022-11-13T14:07:03.572Z,14.40
2022-11-13T14:09:32.108Z,14.77
2022-11-13T14:12:08.993Z,13.98
2022-11-13T14:14:40.428Z,13.55
2022-11-13T14:17:10.920Z,13.55
2022-11-13T14:19:38.874Z,13.80
2022-11-13T14:22:11.510Z,13.52
2022-11-13T14:24:47.068Z,13.35
2022-11-13T14:27:20.405Z,13.98
2022-11-13T14:29:49.911Z,13.85
2022-11-13T14:32:22.234Z,13.45
2022-11-13T14:34:51.620Z,13.85
2022-11-13T14:37:24.945Z,14.23
2022-11-13T14:39:53.753Z,13.60
2022-11-13T14:42:27.309Z,13.73
2022-11-13T14:44:55.436Z,13.15
2022-11-13T14:47:25.792Z,15.88
2022-11-13T14:49:53.926Z,14.68
2022-11-13T14:52:23.448Z,14.55
2022-11-13T14:55:19.044Z,13.70
2022-11-13T14:57:51.892Z,14.43
2022-11-13T15:00:27.282Z,14.30
2022-11-13T15:02:55.507Z,14.98
2022-11-13T15:05:23.354Z,15.40
2022-11-13T15:07:51.656Z,14.55
2022-11-13T15:10:21.815Z,15.60
2022-11-13T15:12:50.962Z,15.20
2022-11-13T15:15:21.959Z,15.02
2022-11-13T15:17:51.913Z,16.13
2022-11-13T15:20:23.936Z,15.73
2022-11-13T15:22:52.935Z,14.20
2022-11-13T15:25:22.710Z,13.93
2022-11-13T15:27:51.969Z,16.10
2022-11-13T15:30:20.309Z,14.77
2022-11-13T15:32:49.146Z,16.92
2022-11-13T15:35:18.918Z,17.23
2022-11-13T15:37:46.765Z,15.70
2022-11-13T15:40:15.453Z,15.30
2022-11-13T15:42:44.219Z,16.15
2022-11-13T15:45:16.988Z,18.48
2022-11-13T15:47:44.982Z,16.92
2022-11-13T15:50:14.888Z,18.53
2022-11-13T15:52:46.881Z,18.05
2022-11-13T15:55:25.790Z,19.85
2022-11-13T15:57:54.452Z,16.35
2022-11-13T16:00:26.107Z,17.50
2022-11-13T16:02:55.688Z,18.17
2022-11-13T16:05:25.242Z,17.00
2022-11-13T16:07:53.381Z,16.23
2022-11-13T16:10:21.708Z,18.20
2022-11-13T16:12:49.484Z,17.25
2022-11-13T16:15:18.282Z,17.55
2022-11-13T16:17:49.487Z,18.80
2022-11-13T16:20:18.774Z,16.80
2022-11-13T16:22:46.741Z,16.90
2022-11-13T16:25:16.629Z,17.83
2022-11-13T16:27:45.077Z,19.35
2022-11-13T16:30:17.274Z,23.08
2022-11-13T16:32:45.167Z,21.25
2022-11-13T16:35:15.587Z,26.80
2022-11-13T16:37:43.713Z,24.83
2022-11-13T16:40:19.169Z,21.27
2022-11-13T16:42:47.548Z,21.60
2022-11-13T16:45:15.618Z,21.60
2022-11-13T16:47:44.305Z,21.48
2022-11-13T16:50:19.892Z,20.42
2022-11-13T16:52:47.733Z,19.55
2022-11-13T16:55:15.686Z,18.70
2022-11-13T16:57:43.583Z,18.27
2022-11-13T17:00:16.031Z,19.23
2022-11-13T17:02:44.683Z,18.27
2022-11-13T17:05:14.326Z,18.42
2022-11-13T17:07:43.578Z,19.02
2022-11-13T17:10:30.820Z,17.80
2022-11-13T17:12:59.456Z,18.10
2022-11-13T17:15:27.266Z,20.20
2022-11-13T17:17:57.892Z,17.45
2022-11-13T17:20:26.017Z,18.33
2022-11-13T17:22:55.265Z,19.87
2022-11-13T17:25:26.347Z,20.83
2022-11-13T17:27:54.260Z,20.40
2022-11-13T17:30:22.430Z,19.70
2022-11-13T17:32:50.274Z,19.83
2022-11-13T17:35:18.176Z,20.27
2022-11-13T17:37:46.000Z,21.50
2022-11-13T17:40:15.246Z,20.30
2022-11-13T17:42:43.066Z,21.77
2022-11-13T17:45:12.033Z,21.73
2022-11-13T17:47:39.829Z,21.70
2022-11-13T17:50:08.604Z,23.37
2022-11-13T17:52:36.480Z,24.48
2022-11-13T17:55:06.171Z,23.05
2022-11-13T17:57:35.641Z,23.07
2022-11-13T18:00:04.670Z,25.13
2022-11-13T18:02:33.979Z,24.67
2022-11-13T18:05:04.038Z,23.37
2022-11-13T18:07:32.438Z,24.42
2022-11-13T18:10:00.232Z,26.33
2022-11-13T18:12:28.609Z,24.40
2022-11-13T18:14:57.865Z,25.88
2022-11-13T18:17:25.978Z,29.35
2022-11-13T18:20:00.400Z,28.33
2022-11-13T18:22:29.838Z,29.15
2022-11-13T18:24:57.721Z,28.20
2022-11-13T18:27:25.569Z,29.50
2022-11-13T18:29:53.444Z,30.92
2022-11-13T18:32:22.699Z,30.43
2022-11-13T18:34:50.522Z,27.77
2022-11-13T18:37:18.407Z,28.97
2022-11-13T18:39:46.351Z,28.20
2022-11-13T18:42:14.133Z,26.42
2022-11-13T18:44:41.904Z,25.58
2022-11-13T18:47:09.771Z,24.27
2022-11-13T18:49:39.046Z,24.20
2022-11-13T18:52:07.089Z,23.33
2022-11-13T18:54:34.986Z,22.37
2022-11-13T18:57:02.840Z,21.30
2022-11-13T18:59:30.824Z,20.83
2022-11-13T19:01:58.694Z,20.15
2022-11-13T19:04:26.557Z,20.08
2022-11-13T19:06:55.983Z,19.20
2022-11-13T19:09:23.850Z,19.87
2022-11-13T19:11:51.716Z,20.02
2022-11-13T19:14:20.264Z,19.00
2022-11-13T19:16:48.141Z,20.45
2022-11-13T19:19:18.185Z,20.92
2022-11-13T19:21:46.685Z,20.00
2022-11-13T19:24:16.270Z,19.67
2022-11-13T19:26:45.822Z,19.77
2022-11-13T19:29:13.848Z,19.70
2022-11-13T19:31:42.069Z,19.20
2022-11-13T19:34:10.905Z,19.30
2022-11-13T19:36:40.965Z,18.25
2022-11-13T19:39:09.642Z,20.33
2022-11-13T19:41:38.862Z,19.43
2022-11-13T19:44:06.917Z,18.70
2022-11-13T19:46:34.802Z,22.27
2022-11-13T19:49:02.574Z,21.63
2022-11-13T19:51:30.349Z,20.15
2022-11-13T19:54:00.318Z,19.42
2022-11-13T19:56:29.116Z,19.77
2022-11-13T19:58:58.332Z,23.60
2022-11-13T20:01:28.257Z,20.75
2022-11-13T20:03:57.392Z,20.92
2022-11-13T20:06:26.314Z,20.15
2022-11-13T20:08:54.211Z,20.25
2022-11-13T20:11:22.107Z,20.77
2022-11-13T20:13:49.992Z,20.63
2022-11-13T20:16:20.863Z,20.33
2022-11-13T20:18:49.008Z,21.67
2022-11-13T20:21:17.230Z,20.20
2022-11-13T20:23:45.076Z,21.27
2022-11-13T20:26:16.513Z,21.13
2022-11-13T20:28:44.566Z,21.05
2022-11-13T20:31:16.255Z,21.45
2022-11-13T20:33:45.538Z,20.80
2022-11-13T20:36:14.169Z,22.55
2022-11-13T20:38:44.030Z,21.13
2022-11-13T20:41:12.729Z,21.97
2022-11-13T20:43:40.734Z,23.02
2022-11-13T20:46:11.049Z,23.63
2022-11-13T20:48:39.057Z,22.92
2022-11-13T20:51:09.853Z,22.90
2022-11-13T20:53:37.697Z,23.98
2022-11-13T20:56:07.489Z,24.70
2022-11-13T20:58:35.581Z,35.25
2022-11-13T21:01:04.685Z,30.70
2022-11-13T21:03:35.912Z,29.93
2022-11-13T21:06:08.906Z,25.42
2022-11-13T21:08:36.871Z,29.50
2022-11-13T21:11:06.842Z,40.42
2022-11-13T21:13:35.637Z,31.77
2022-11-13T21:16:06.182Z,28.92
2022-11-13T21:18:34.222Z,37.58
2022-11-13T21:21:08.304Z,29.13
2022-11-13T21:23:36.259Z,29.83
2022-11-13T21:26:05.679Z,30.80
2022-11-13T21:28:35.655Z,33.92
2022-11-13T21:31:04.343Z,29.63
2022-11-13T21:33:36.409Z,30.38
2022-11-13T21:36:11.766Z,33.70
2022-11-13T21:38:40.074Z,33.55
2022-11-13T21:41:24.655Z,39.20
2022-11-13T21:43:56.341Z,40.58
2022-11-13T21:46:26.184Z,35.13
2022-11-13T21:48:57.108Z,30.63
2022-11-13T21:51:26.738Z,32.60
2022-11-13T21:53:54.578Z,33.67
2022-11-13T21:56:22.776Z,29.83
2022-11-13T21:58:50.810Z,29.77
2022-11-13T22:01:18.843Z,29.52
2022-11-13T22:03:46.772Z,30.77
2022-11-13T22:06:20.028Z,30.83
2022-11-13T22:08:56.544Z,30.02
2022-11-13T22:11:24.718Z,28.88
2022-11-13T22:13:52.628Z,29.83
2022-11-13T22:16:20.826Z,30.33
2022-11-13T22:18:48.760Z,29.52
2022-11-13T22:21:16.831Z,29.00
2022-11-13T22:23:44.667Z,32.75
2022-11-13T22:26:15.931Z,28.10
2022-11-13T22:28:45.405Z,27.20
2022-11-13T22:31:15.773Z,27.10
2022-11-13T22:33:48.299Z,26.52
2022-11-13T22:36:20.561Z,26.80
2022-11-13T22:38:48.798Z,25.23
2022-11-13T22:41:22.826Z,25.33
2022-11-13T22:43:53.530Z,26.87
2022-11-13T22:46:23.396Z,35.28
2022-11-13T22:48:52.787Z,24.43
2022-11-13T22:51:22.429Z,25.67
2022-11-13T22:53:51.976Z,25.20
2022-11-13T22:56:22.487Z,24.63
2022-11-13T22:58:50.813Z,31.07
2022-11-13T23:01:20.995Z,24.60
2022-11-13T23:03:50.386Z,28.63
2022-11-13T23:06:20.474Z,24.83
2022-11-13T23:08:49.369Z,27.10
2022-11-13T23:11:19.882Z,25.30
2022-11-13T23:13:50.385Z,31.52
2022-11-13T23:16:19.224Z,25.98
2022-11-13T23:18:47.375Z,25.23
2022-11-13T23:21:16.388Z,24.88
2022-11-13T23:23:44.722Z,25.13
2022-11-13T23:26:13.855Z,37.25
2022-11-13T23:28:41.897Z,32.97
2022-11-13T23:31:11.596Z,25.77
2022-11-13T23:33:40.397Z,26.90
2022-11-13T23:36:09.641Z,27.83
2022-11-13T23:38:37.454Z,26.65
2022-11-13T23:41:05.572Z,28.27
2022-11-13T23:44:02.209Z,29.67
2022-11-13T23:46:22.565Z,26.43
2022-11-13T23:48:50.374Z,24.05
2022-11-13T23:51:18.111Z,23.42
2022-11-13T23:53:45.888Z,23.83
2022-11-13T23:56:13.691Z,24.58
2022-11-13T23:58:41.492Z,22.83
